Time;durP1;ratioP1;P1;durP2;ratioP2;P2;SDS_P1;SDS_P2;PMS_P1;PMS_P2;Temp;Humidity;BMP_temperature;BMP_pressure;BME280_temperature;BME280_humidity;BME280_pressure;Samples;Min_cycle;Max_cycle;Signal;HPM_P1;HPM_P2
2022/08/29 00:00:50;;;;;;;8.52;6.05;;;;;;;;;;5002126;28;20428;-71
2022/08/29 00:03:36;;;;;;;9.50;5.90;;;;;;;;;;5010683;28;20026;-72
2022/08/29 00:06:21;;;;;;;8.45;6.28;;;;;;;;;;5011662;28;20033;-71
2022/08/29 00:09:07;;;;;;;12.52;6.35;;;;;;;;;;5007753;28;20101;-71
2022/08/29 00:11:52;;;;;;;11.68;6.43;;;;;;;;;;5005936;28;20030;-68
2022/08/29 00:14:38;;;;;;;10.73;5.97;;;;;;;;;;5007794;28;20469;-64
2022/08/29 00:17:23;;;;;;;14.18;6.43;;;;;;;;;;5009048;28;20497;-71
2022/08/29 00:20:11;;;;;;;8.38;5.63;;;;;;;;;;4994357;28;20025;-72
2022/08/29 00:22:56;;;;;;;8.00;5.82;;;;;;;;;;5008912;28;20058;-71
2022/08/29 00:25:42;;;;;;;10.77;6.35;;;;;;;;;;5009240;28;20374;-73
2022/08/29 00:28:27;;;;;;;9.45;5.85;;;;;;;;;;4996828;28;20113;-72
2022/08/29 00:31:13;;;;;;;7.65;5.35;;;;;;;;;;5010567;28;20100;-71
2022/08/29 00:33:59;;;;;;;7.43;5.57;;;;;;;;;;5007829;28;20030;-70
2022/08/29 00:36:44;;;;;;;9.88;6.45;;;;;;;;;;5007159;28;20034;-71
2022/08/29 00:39:30;;;;;;;9.48;6.35;;;;;;;;;;4994243;28;20030;-70
2022/08/29 00:42:15;;;;;;;9.02;5.93;;;;;;;;;;4996455;28;20047;-71
2022/08/29 00:45:03;;;;;;;9.98;6.72;;;;;;;;;;5009535;28;20073;-70
2022/08/29 00:47:51;;;;;;;7.03;5.30;;;;;;;;;;5010744;28;20045;-72
2022/08/29 00:50:46;;;;;;;11.07;5.85;;;;;;;;;;5007867;28;20041;-69
2022/08/29 00:53:35;;;;;;;7.22;5.40;;;;;;;;;;5004490;28;20045;-72
2022/08/29 00:56:21;;;;;;;9.17;5.43;;;;;;;;;;5007058;28;20080;-72
2022/08/29 00:59:12;;;;;;;8.85;5.32;;;;;;;;;;5009750;28;20277;-71
2022/08/29 01:01:58;;;;;;;13.70;6.07;;;;;;;;;;5009739;28;20477;-71
2022/08/29 01:04:45;;;;;;;7.60;5.50;;;;;;;;;;5008751;28;20029;-71
2022/08/29 01:07:31;;;;;;;8.30;5.72;;;;;;;;;;5010769;28;20172;-72
2022/08/29 01:13:24;;;;;;;9.75;6.22;;;;;;;;;;5001571;28;20033;-71
2022/08/29 01:16:13;;;;;;;8.00;5.78;;;;;;;;;;5008327;28;20030;-71
2022/08/29 01:19:01;;;;;;;11.77;7.00;;;;;;;;;;5010752;28;20022;-71
2022/08/29 01:22:09;;;;;;;7.63;5.03;;;;;;;;;;5012494;28;20018;-72
2022/08/29 01:24:55;;;;;;;10.80;6.00;;;;;;;;;;5010357;28;20026;-71
2022/08/29 01:27:43;;;;;;;8.88;6.10;;;;;;;;;;5010958;28;20021;-71
2022/08/29 01:30:28;;;;;;;7.85;5.32;;;;;;;;;;5005442;28;20025;-69
2022/08/29 01:33:14;;;;;;;10.18;5.75;;;;;;;;;;5010510;28;20069;-70
2022/08/29 01:35:59;;;;;;;9.18;5.53;;;;;;;;;;5002854;28;20026;-71
2022/08/29 01:38:46;;;;;;;10.40;5.95;;;;;;;;;;5001437;28;20501;-70
2022/08/29 01:41:31;;;;;;;9.43;5.05;;;;;;;;;;5006908;28;20022;-70
2022/08/29 01:44:21;;;;;;;8.93;5.75;;;;;;;;;;4998081;28;20025;-67
2022/08/29 01:47:07;;;;;;;7.50;5.47;;;;;;;;;;5008741;28;20024;-62
2022/08/29 01:49:53;;;;;;;7.47;5.28;;;;;;;;;;5010104;28;20116;-73
2022/08/29 01:52:39;;;;;;;7.53;5.18;;;;;;;;;;5012389;28;20046;-73
2022/08/29 01:55:25;;;;;;;8.15;5.50;;;;;;;;;;5008447;28;20029;-72
2022/08/29 01:58:10;;;;;;;10.30;5.78;;;;;;;;;;5010566;28;20033;-72
2022/08/29 02:00:56;;;;;;;8.75;5.70;;;;;;;;;;5012054;28;20370;-72
2022/08/29 02:03:42;;;;;;;6.55;5.40;;;;;;;;;;4996507;28;20547;-66
2022/08/29 02:06:28;;;;;;;9.93;5.35;;;;;;;;;;5013056;28;20493;-71
2022/08/29 02:09:14;;;;;;;7.95;4.93;;;;;;;;;;5012375;28;20029;-70
2022/08/29 02:12:03;;;;;;;11.25;5.85;;;;;;;;;;4993240;28;20023;-70
2022/08/29 02:14:49;;;;;;;8.00;5.43;;;;;;;;;;5006493;28;20023;-70
2022/08/29 02:17:35;;;;;;;9.32;5.10;;;;;;;;;;5010505;28;20041;-70
2022/08/29 02:20:21;;;;;;;8.05;5.82;;;;;;;;;;5010706;28;20013;-71
2022/08/29 02:23:06;;;;;;;9.73;5.85;;;;;;;;;;5010651;28;20061;-71
2022/08/29 02:25:52;;;;;;;9.82;5.47;;;;;;;;;;5000410;28;20036;-66
2022/08/29 02:28:39;;;;;;;9.15;5.70;;;;;;;;;;5011718;28;20551;-66
2022/08/29 02:31:25;;;;;;;9.23;5.90;;;;;;;;;;5011880;28;20026;-67
2022/08/29 02:34:11;;;;;;;8.75;6.00;;;;;;;;;;5005354;28;20018;-66
2022/08/29 02:36:58;;;;;;;9.45;5.55;;;;;;;;;;5011014;28;20033;-65
2022/08/29 02:39:43;;;;;;;7.60;5.47;;;;;;;;;;5005359;28;20018;-66
2022/08/29 02:42:29;;;;;;;8.75;5.00;;;;;;;;;;5007088;28;20943;-63
2022/08/29 02:45:14;;;;;;;10.90;5.82;;;;;;;;;;5012596;28;20507;-70
2022/08/29 02:48:00;;;;;;;10.45;5.82;;;;;;;;;;5008796;28;20022;-70
2022/08/29 02:50:47;;;;;;;8.30;5.38;;;;;;;;;;5010402;28;20109;-71
2022/08/29 02:53:32;;;;;;;9.75;5.82;;;;;;;;;;5010232;28;20048;-70
2022/08/29 02:56:18;;;;;;;9.50;5.40;;;;;;;;;;5005860;28;20026;-70
2022/08/29 02:59:04;;;;;;;8.45;6.07;;;;;;;;;;5006451;28;20033;-70
2022/08/29 03:01:52;;;;;;;8.90;5.72;;;;;;;;;;5007112;28;20018;-70
2022/08/29 03:04:37;;;;;;;8.98;5.65;;;;;;;;;;5007972;28;20071;-70
2022/08/29 03:07:23;;;;;;;10.88;5.63;;;;;;;;;;5012647;28;20032;-70
2022/08/29 03:10:10;;;;;;;10.93;5.75;;;;;;;;;;5010312;28;20033;-70
2022/08/29 03:12:56;;;;;;;10.18;5.25;;;;;;;;;;5011271;28;20033;-70
2022/08/29 03:15:41;;;;;;;9.13;5.85;;;;;;;;;;5007898;28;20477;-70
2022/08/29 03:18:27;;;;;;;7.53;5.05;;;;;;;;;;5010520;28;20034;-62
2022/08/29 03:21:18;;;;;;;7.82;5.57;;;;;;;;;;5011296;28;20117;-70
2022/08/29 03:24:04;;;;;;;7.68;5.28;;;;;;;;;;5010773;28;20045;-71
2022/08/29 03:26:49;;;;;;;6.95;5.05;;;;;;;;;;4994998;28;20025;-70
2022/08/29 03:29:36;;;;;;;8.77;5.50;;;;;;;;;;5009602;28;20052;-71
2022/08/29 03:32:22;;;;;;;9.05;5.72;;;;;;;;;;5009192;28;20037;-71
2022/08/29 03:35:08;;;;;;;12.32;5.75;;;;;;;;;;5010010;28;21393;-63
2022/08/29 03:37:54;;;;;;;9.80;5.85;;;;;;;;;;5012462;28;20061;-71
2022/08/29 03:40:41;;;;;;;9.35;5.50;;;;;;;;;;5008192;28;20029;-71
2022/08/29 03:43:26;;;;;;;7.70;4.72;;;;;;;;;;5006142;28;20030;-73
2022/08/29 03:46:12;;;;;;;11.98;5.70;;;;;;;;;;5003908;28;20068;-72
2022/08/29 03:48:57;;;;;;;9.82;6.13;;;;;;;;;;5008172;28;20054;-70
2022/08/29 03:51:43;;;;;;;8.45;5.30;;;;;;;;;;5007732;28;20104;-71
2022/08/29 03:54:28;;;;;;;8.68;5.20;;;;;;;;;;5010498;28;20567;-71
2022/08/29 03:57:14;;;;;;;10.98;4.95;;;;;;;;;;5006087;28;20037;-69
2022/08/29 04:00:00;;;;;;;13.38;6.00;;;;;;;;;;5006112;28;20029;-71
2022/08/29 04:02:46;;;;;;;12.35;6.07;;;;;;;;;;5010403;28;20029;-70
2022/08/29 04:05:32;;;;;;;9.45;6.05;;;;;;;;;;5009551;28;20508;-70
2022/08/29 04:08:18;;;;;;;9.38;6.38;;;;;;;;;;5006086;28;20026;-70
2022/08/29 04:11:10;;;;;;;7.85;5.90;;;;;;;;;;5006519;28;20026;-70
2022/08/29 04:13:56;;;;;;;8.18;5.25;;;;;;;;;;4996434;28;20037;-67
2022/08/29 04:16:45;;;;;;;8.60;5.43;;;;;;;;;;4989799;28;20044;-70
2022/08/29 04:19:30;;;;;;;8.07;5.33;;;;;;;;;;5009676;28;20096;-71
2022/08/29 04:22:16;;;;;;;12.23;5.28;;;;;;;;;;5011994;28;20044;-70
2022/08/29 04:25:02;;;;;;;7.90;5.53;;;;;;;;;;5008969;28;20414;-70
2022/08/29 04:27:48;;;;;;;9.32;5.70;;;;;;;;;;5011609;28;20026;-71
2022/08/29 04:30:34;;;;;;;10.25;5.18;;;;;;;;;;5007532;28;20420;-64
2022/08/29 04:33:23;;;;;;;8.57;5.68;;;;;;;;;;5010866;28;20025;-63
2022/08/29 04:36:08;;;;;;;10.65;6.05;;;;;;;;;;5010749;28;20040;-65
2022/08/29 04:38:54;;;;;;;9.40;6.15;;;;;;;;;;5009105;28;20512;-62
2022/08/29 04:41:40;;;;;;;8.15;5.50;;;;;;;;;;5002575;28;20037;-62
2022/08/29 04:44:25;;;;;;;11.57;5.47;;;;;;;;;;5011926;28;20025;-62
2022/08/29 04:47:11;;;;;;;10.32;6.30;;;;;;;;;;5007044;28;20105;-64
2022/08/29 04:49:56;;;;;;;10.13;6.35;;;;;;;;;;5011722;28;20030;-71
2022/08/29 04:52:42;;;;;;;9.93;6.20;;;;;;;;;;5013388;28;20049;-70
2022/08/29 04:55:28;;;;;;;12.40;6.18;;;;;;;;;;5014282;28;20516;-69
2022/08/29 04:58:13;;;;;;;10.00;6.30;;;;;;;;;;5012437;28;20025;-70
2022/08/29 05:00:59;;;;;;;10.15;6.05;;;;;;;;;;5009603;28;20022;-68
2022/08/29 05:03:45;;;;;;;7.55;5.65;;;;;;;;;;5004278;28;20026;-67
2022/08/29 05:06:30;;;;;;;9.02;6.07;;;;;;;;;;5008806;28;20026;-69
2022/08/29 05:09:16;;;;;;;10.27;6.45;;;;;;;;;;5007486;28;20021;-71
2022/08/29 05:12:02;;;;;;;8.60;5.47;;;;;;;;;;5011941;28;20057;-67
2022/08/29 05:14:47;;;;;;;10.30;5.32;;;;;;;;;;4995341;28;20452;-69
2022/08/29 05:17:33;;;;;;;7.32;5.47;;;;;;;;;;5014054;28;20081;-67
2022/08/29 05:20:19;;;;;;;7.88;5.53;;;;;;;;;;5010682;28;20425;-69
2022/08/29 05:23:05;;;;;;;8.70;5.45;;;;;;;;;;5013573;28;20044;-71
2022/08/29 05:25:54;;;;;;;10.93;5.72;;;;;;;;;;4999479;28;20025;-69
2022/08/29 05:28:40;;;;;;;;;;;;;;;;;;5009496;28;20036;-62
2022/08/29 05:31:25;;;;;;;10.43;6.38;;;;;;;;;;5009570;28;19967;-64
2022/08/29 05:34:11;;;;;;;10.23;5.97;;;;;;;;;;5005153;28;20068;-63
2022/08/29 05:36:57;;;;;;;9.50;5.95;;;;;;;;;;4996258;28;20034;-64
2022/08/29 05:39:42;;;;;;;8.65;6.15;;;;;;;;;;5005955;28;20053;-64
2022/08/29 05:42:28;;;;;;;8.20;5.65;;;;;;;;;;5012431;28;20047;-63
2022/08/29 05:45:14;;;;;;;8.93;6.30;;;;;;;;;;5001703;28;20018;-71
2022/08/29 05:48:01;;;;;;;11.27;6.22;;;;;;;;;;5014094;28;20553;-65
2022/08/29 05:50:46;;;;;;;11.63;7.32;;;;;;;;;;5014344;28;20021;-64
2022/08/29 05:53:33;;;;;;;10.32;6.28;;;;;;;;;;5011035;28;20099;-65
2022/08/29 05:56:20;;;;;;;8.70;6.47;;;;;;;;;;5007287;28;20444;-64
2022/08/29 05:59:05;;;;;;;10.93;6.78;;;;;;;;;;5006033;28;20457;-63
2022/08/29 06:01:51;;;;;;;10.93;6.13;;;;;;;;;;5008776;28;20025;-73
2022/08/29 06:04:37;;;;;;;10.45;6.35;;;;;;;;;;4992548;28;20034;-64
2022/08/29 06:07:23;;;;;;;9.80;6.32;;;;;;;;;;4989612;28;20115;-72
2022/08/29 06:10:09;;;;;;;7.82;5.07;;;;;;;;;;5009812;28;20080;-71
2022/08/29 06:12:54;;;;;;;10.68;6.00;;;;;;;;;;5006335;28;20017;-71
2022/08/29 06:15:44;;;;;;;9.27;5.60;;;;;;;;;;4999224;28;20026;-71
2022/08/29 06:18:29;;;;;;;;;;;;;;;;;;5010914;28;20022;-70
2022/08/29 06:21:16;;;;;;;10.07;6.43;;;;;;;;;;5012117;28;19909;-72
2022/08/29 06:24:01;;;;;;;8.93;6.28;;;;;;;;;;4998339;28;20018;-71
2022/08/29 06:26:47;;;;;;;9.27;5.95;;;;;;;;;;5009813;28;20117;-69
2022/08/29 06:29:32;;;;;;;9.38;5.38;;;;;;;;;;5011339;28;20191;-69
2022/08/29 06:32:18;;;;;;;11.35;6.35;;;;;;;;;;5012266;28;20672;-70
2022/08/29 06:35:04;;;;;;;10.27;6.75;;;;;;;;;;5008002;28;20129;-69
2022/08/29 06:37:49;;;;;;;9.35;5.40;;;;;;;;;;5009530;28;20615;-70
2022/08/29 06:40:35;;;;;;;9.38;5.47;;;;;;;;;;5007374;28;20054;-70
2022/08/29 06:43:21;;;;;;;11.43;5.88;;;;;;;;;;5011227;28;20560;-64
2022/08/29 06:46:17;;;;;;;12.63;5.30;;;;;;;;;;5011851;28;20041;-64
2022/08/29 06:49:04;;;;;;;10.73;6.00;;;;;;;;;;5011911;28;20014;-65
2022/08/29 06:51:53;;;;;;;10.30;5.13;;;;;;;;;;5010214;28;20054;-65
2022/08/29 06:54:38;;;;;;;10.63;5.35;;;;;;;;;;5010116;28;20499;-66
2022/08/29 06:57:25;;;;;;;10.07;5.72;;;;;;;;;;4996323;28;20041;-74
2022/08/29 07:00:12;;;;;;;9.32;5.53;;;;;;;;;;5000470;28;20076;-75
2022/08/29 07:02:58;;;;;;;8.18;5.05;;;;;;;;;;5008921;28;20080;-69
2022/08/29 07:05:49;;;;;;;11.45;5.90;;;;;;;;;;4997484;28;20053;-73
2022/08/29 07:08:35;;;;;;;8.75;5.50;;;;;;;;;;5005264;28;20025;-75
2022/08/29 07:11:21;;;;;;;12.25;5.72;;;;;;;;;;4988844;28;20045;-75
2022/08/29 07:14:06;;;;;;;10.75;5.70;;;;;;;;;;5007060;28;20033;-74
2022/08/29 07:16:53;;;;;;;9.60;6.40;;;;;;;;;;5005879;28;20030;-64
2022/08/29 07:19:38;;;;;;;9.90;5.38;;;;;;;;;;5012581;28;20125;-61
2022/08/29 07:22:27;;;;;;;10.90;5.28;;;;;;;;;;4997330;28;20026;-62
2022/08/29 07:25:12;;;;;;;9.52;5.70;;;;;;;;;;5007268;28;20076;-61
2022/08/29 07:27:58;;;;;;;8.65;5.28;;;;;;;;;;4995658;28;20022;-62
2022/08/29 07:30:44;;;;;;;10.00;5.15;;;;;;;;;;5009474;28;20389;-62
2022/08/29 07:33:30;;;;;;;9.10;5.60;;;;;;;;;;5008950;28;20018;-63
2022/08/29 07:36:15;;;;;;;7.57;5.50;;;;;;;;;;5008174;28;20485;-73
2022/08/29 07:39:03;;;;;;;11.73;5.88;;;;;;;;;;5010939;28;20147;-63
2022/08/29 07:41:49;;;;;;;12.15;5.55;;;;;;;;;;5004300;28;20022;-63
2022/08/29 07:44:34;;;;;;;12.70;5.15;;;;;;;;;;5002530;28;20108;-65
2022/08/29 07:47:20;;;;;;;8.38;5.65;;;;;;;;;;5008208;28;20034;-63
2022/08/29 07:50:08;;;;;;;9.85;6.20;;;;;;;;;;5006835;28;20485;-64
2022/08/29 07:52:54;;;;;;;9.40;6.10;;;;;;;;;;5007758;28;20045;-71
2022/08/29 07:55:39;;;;;;;8.60;5.60;;;;;;;;;;5009354;28;20099;-71
2022/08/29 07:58:25;;;;;;;12.05;6.20;;;;;;;;;;4998313;28;20022;-71
2022/08/29 08:01:11;;;;;;;7.93;5.10;;;;;;;;;;5008873;28;20022;-71
2022/08/29 08:03:57;;;;;;;11.18;5.70;;;;;;;;;;5003436;28;20021;-70
2022/08/29 08:06:43;;;;;;;9.00;5.85;;;;;;;;;;5010476;28;20033;-71
2022/08/29 08:09:29;;;;;;;9.07;6.35;;;;;;;;;;5010426;28;20026;-68
2022/08/29 08:12:14;;;;;;;10.95;7.55;;;;;;;;;;5006236;28;20436;-71
2022/08/29 08:15:01;;;;;;;10.25;6.82;;;;;;;;;;4991866;28;20021;-71
2022/08/29 08:17:47;;;;;;;12.82;7.60;;;;;;;;;;5006231;28;20126;-71
2022/08/29 08:20:33;;;;;;;12.52;7.97;;;;;;;;;;4995733;28;20481;-72
2022/08/29 08:23:19;;;;;;;9.48;6.50;;;;;;;;;;5006491;28;20488;-73
2022/08/29 08:26:06;;;;;;;11.15;6.88;;;;;;;;;;5008104;28;20393;-72
2022/08/29 08:28:54;;;;;;;11.95;6.95;;;;;;;;;;5006716;28;20025;-72
2022/08/29 08:31:48;;;;;;;15.93;7.78;;;;;;;;;;5005765;28;20083;-62
2022/08/29 08:34:33;;;;;;;12.32;6.50;;;;;;;;;;5004656;28;20022;-70
2022/08/29 08:37:22;;;;;;;10.38;6.82;;;;;;;;;;5006514;28;20523;-69
2022/08/29 08:40:07;;;;;;;13.50;6.37;;;;;;;;;;5006154;28;20069;-70
2022/08/29 08:43:00;;;;;;;9.68;5.85;;;;;;;;;;5004010;28;20260;-69
2022/08/29 08:45:46;;;;;;;8.00;5.60;;;;;;;;;;5006958;28;20530;-69
2022/08/29 08:48:35;;;;;;;9.80;5.95;;;;;;;;;;5010891;28;20026;-62
2022/08/29 08:51:24;;;;;;;7.45;5.18;;;;;;;;;;5010127;28;20038;-68
2022/08/29 08:54:15;;;;;;;9.93;5.40;;;;;;;;;;5007873;28;20033;-66
2022/08/29 08:57:08;;;;;;;12.88;6.88;;;;;;;;;;4996615;28;20481;-67
2022/08/29 08:59:56;;;;;;;11.00;6.18;;;;;;;;;;5010246;28;20061;-67
2022/08/29 09:03:01;;;;;;;11.55;6.68;;;;;;;;;;4990096;28;20032;-67
2022/08/29 09:05:50;;;;;;;8.60;5.45;;;;;;;;;;5009895;28;20022;-68
2022/08/29 09:08:54;;;;;;;11.57;6.93;;;;;;;;;;4994090;28;20503;-64
2022/08/29 09:11:55;;;;;;;8.73;5.30;;;;;;;;;;4991115;28;20030;-63
2022/08/29 09:14:41;;;;;;;11.88;6.70;;;;;;;;;;5006737;28;20045;-64
2022/08/29 09:17:31;;;;;;;8.10;5.60;;;;;;;;;;5006563;28;20708;-63
2022/08/29 09:20:22;;;;;;;7.88;5.13;;;;;;;;;;4992728;28;20172;-63
2022/08/29 09:23:22;;;;;;;14.30;6.82;;;;;;;;;;5004828;28;20022;-62
2022/08/29 09:26:08;;;;;;;11.68;6.45;;;;;;;;;;5002161;28;20098;-70
2022/08/29 09:28:54;;;;;;;9.32;5.35;;;;;;;;;;5007376;28;20034;-65
2022/08/29 09:31:39;;;;;;;11.93;5.78;;;;;;;;;;5008540;28;20030;-64
2022/08/29 09:34:36;;;;;;;9.20;5.18;;;;;;;;;;5008119;28;20068;-64
2022/08/29 09:37:21;;;;;;;11.38;5.97;;;;;;;;;;5008689;28;20052;-65
2022/08/29 09:40:10;;;;;;;8.38;4.72;;;;;;;;;;4989727;28;20033;-65
2022/08/29 09:43:00;;;;;;;8.63;5.13;;;;;;;;;;5011166;28;20030;-64
2022/08/29 09:46:06;;;;;;;9.38;5.18;;;;;;;;;;5012438;28;20032;-67
2022/08/29 09:49:11;;;;;;;8.95;5.00;;;;;;;;;;5014059;28;20511;-70
2022/08/29 09:52:08;;;;;;;9.18;5.60;;;;;;;;;;5013576;28;20456;-71
2022/08/29 09:54:55;;;;;;;8.07;5.05;;;;;;;;;;5011198;28;20030;-73
2022/08/29 09:57:40;;;;;;;8.18;5.15;;;;;;;;;;4996338;28;20683;-71
2022/08/29 10:00:28;;;;;;;6.40;4.03;;;;;;;;;;5013360;28;20026;-71
2022/08/29 10:03:21;;;;;;;8.52;4.72;;;;;;;;;;5008050;28;20026;-68
2022/08/29 10:06:20;;;;;;;6.80;4.13;;;;;;;;;;5005271;28;20440;-63
2022/08/29 10:09:23;;;;;;;7.20;3.83;;;;;;;;;;5005310;28;20029;-64
2022/08/29 10:12:11;;;;;;;7.43;4.05;;;;;;;;;;5012349;28;20393;-65
2022/08/29 10:14:59;;;;;;;12.15;5.90;;;;;;;;;;5010929;28;20390;-64
2022/08/29 10:21:23;;;;;;;9.00;4.38;;;;;;;;;;5009857;28;20021;-63
2022/08/29 10:24:21;;;;;;;15.25;6.97;;;;;;;;;;5000879;28;20052;-72
2022/08/29 10:27:20;;;;;;;14.40;7.03;;;;;;;;;;5011424;28;20021;-72
2022/08/29 10:30:14;;;;;;;9.20;4.88;;;;;;;;;;5008907;28;20024;-71
2022/08/29 10:33:17;;;;;;;8.63;4.13;;;;;;;;;;5020172;28;20385;-73
2022/08/29 10:36:06;;;;;;;7.55;4.72;;;;;;;;;;5001470;28;20057;-73
2022/08/29 10:38:54;;;;;;;7.28;4.10;;;;;;;;;;5019122;28;20480;-68
2022/08/29 10:41:49;;;;;;;7.95;4.32;;;;;;;;;;5008603;28;20088;-67
2022/08/29 10:44:53;;;;;;;6.75;4.03;;;;;;;;;;5011376;28;20088;-68
2022/08/29 10:47:49;;;;;;;9.40;4.45;;;;;;;;;;5010067;28;20038;-67
2022/08/29 10:50:35;;;;;;;7.55;4.47;;;;;;;;;;5011495;28;20033;-67
2022/08/29 10:53:23;;;;;;;6.70;3.88;;;;;;;;;;5003908;28;20129;-69
2022/08/29 10:56:23;;;;;;;7.53;4.65;;;;;;;;;;5017784;28;20030;-68
2022/08/29 10:59:21;;;;;;;6.63;4.18;;;;;;;;;;5010242;28;20038;-68
2022/08/29 11:02:29;;;;;;;7.18;4.50;;;;;;;;;;5007930;28;20057;-63
2022/08/29 11:05:18;;;;;;;8.55;4.63;;;;;;;;;;5008641;28;20044;-64
2022/08/29 11:08:07;;;;;;;10.25;4.78;;;;;;;;;;4992178;28;20030;-62
2022/08/29 11:10:52;;;;;;;9.13;3.67;;;;;;;;;;5006300;28;20014;-63
2022/08/29 11:13:41;;;;;;;8.38;4.30;;;;;;;;;;5007940;28;20048;-63
2022/08/29 11:16:27;;;;;;;;;;;;;;;;;;5010139;28;20108;-70
2022/08/29 11:19:23;;;;;;;5.25;3.75;;;;;;;;;;5010498;28;19975;-74
2022/08/29 11:22:22;;;;;;;6.90;3.97;;;;;;;;;;5010971;28;20029;-74
2022/08/29 11:25:09;;;;;;;9.07;4.40;;;;;;;;;;5009506;28;20113;-73
2022/08/29 11:28:28;;;;;;;8.25;4.18;;;;;;;;;;4996338;28;20034;-74
2022/08/29 11:31:21;;;;;;;6.20;3.90;;;;;;;;;;4968079;28;20026;-76
2022/08/29 11:34:17;;;;;;;6.38;3.78;;;;;;;;;;4999161;28;20417;-68
2022/08/29 11:37:30;;;;;;;7.22;4.35;;;;;;;;;;4994915;28;20049;-68
2022/08/29 11:40:28;;;;;;;5.80;3.97;;;;;;;;;;5005611;28;20044;-69
2022/08/29 11:43:20;;;;;;;9.10;4.63;;;;;;;;;;4988999;28;20018;-70
2022/08/29 11:46:06;;;;;;;8.23;4.05;;;;;;;;;;5000327;28;20034;-70
2022/08/29 11:49:12;;;;;;;5.50;3.63;;;;;;;;;;5003805;28;20112;-71
2022/08/29 11:51:59;;;;;;;6.15;4.07;;;;;;;;;;5009685;28;20046;-71
2022/08/29 11:54:50;;;;;;;6.00;4.22;;;;;;;;;;5009498;28;20113;-70
2022/08/29 11:57:37;;;;;;;8.88;4.93;;;;;;;;;;5008952;28;20038;-63
2022/08/29 12:00:34;;;;;;;8.50;4.10;;;;;;;;;;5000050;28;20065;-64
2022/08/29 12:03:31;;;;;;;5.78;4.07;;;;;;;;;;5008209;28;20029;-65
2022/08/29 12:06:36;;;;;;;5.90;3.92;;;;;;;;;;4989538;28;20019;-64
2022/08/29 12:09:22;;;;;;;6.60;3.70;;;;;;;;;;5006775;28;20036;-65
2022/08/29 12:12:09;;;;;;;6.95;4.55;;;;;;;;;;5014114;28;20025;-73
2022/08/29 12:14:54;;;;;;;6.72;3.90;;;;;;;;;;5011142;28;20072;-74
2022/08/29 12:17:41;;;;;;;6.95;4.10;;;;;;;;;;5006166;28;20069;-73
2022/08/29 12:20:30;;;;;;;8.50;4.80;;;;;;;;;;5011150;28;20072;-72
2022/08/29 12:23:30;;;;;;;5.10;3.55;;;;;;;;;;5008620;28;20030;-73
2022/08/29 12:26:34;;;;;;;6.07;3.97;;;;;;;;;;4994634;28;20037;-73
2022/08/29 12:29:32;;;;;;;8.13;4.53;;;;;;;;;;5000565;28;20026;-72
2022/08/29 12:32:20;;;;;;;6.75;4.10;;;;;;;;;;5008037;28;20076;-72
2022/08/29 12:35:09;;;;;;;5.38;3.63;;;;;;;;;;4991782;28;20129;-72
2022/08/29 12:38:08;;;;;;;8.00;3.90;;;;;;;;;;5008412;28;20046;-73
2022/08/29 12:40:53;;;;;;;;;;;;;;;;;;4996179;28;20117;-73
2022/08/29 12:43:41;;;;;;;7.10;4.18;;;;;;;;;;5004899;28;19909;-73
2022/08/29 12:46:29;;;;;;;9.30;4.07;;;;;;;;;;5000359;28;20030;-72
2022/08/29 12:49:50;;;;;;;6.10;3.92;;;;;;;;;;5009471;28;20041;-70
2022/08/29 12:52:36;;;;;;;6.25;3.80;;;;;;;;;;4985344;28;20046;-70
2022/08/29 12:55:26;;;;;;;6.45;3.95;;;;;;;;;;5009086;28;20448;-70
2022/08/29 12:58:13;;;;;;;6.03;3.83;;;;;;;;;;5008136;28;20400;-69
2022/08/29 13:00:59;;;;;;;8.73;3.70;;;;;;;;;;5005506;28;20014;-69
2022/08/29 13:03:54;;;;;;;8.82;4.28;;;;;;;;;;5000750;28;20045;-70
2022/08/29 13:06:53;;;;;;;8.27;4.05;;;;;;;;;;5006753;28;20076;-73
2022/08/29 13:09:40;;;;;;;6.63;4.20;;;;;;;;;;5005892;28;20511;-70
2022/08/29 13:12:28;;;;;;;4.90;4.05;;;;;;;;;;5006794;28;20060;-70
2022/08/29 13:15:21;;;;;;;7.55;4.65;;;;;;;;;;5009575;28;20025;-70
2022/08/29 13:18:07;;;;;;;8.63;3.42;;;;;;;;;;5009451;28;20082;-70
2022/08/29 13:21:02;;;;;;;7.95;3.75;;;;;;;;;;5013213;28;20030;-71
2022/08/29 13:23:59;;;;;;;6.82;3.80;;;;;;;;;;4993716;28;20025;-71
2022/08/29 13:26:55;;;;;;;7.50;4.03;;;;;;;;;;5009279;28;20429;-71
2022/08/29 13:29:41;;;;;;;5.95;3.70;;;;;;;;;;5005119;28;20032;-73
2022/08/29 13:32:27;;;;;;;6.63;3.83;;;;;;;;;;5010999;28;20034;-74
2022/08/29 13:35:12;;;;;;;5.55;3.88;;;;;;;;;;5013646;28;20038;-75
2022/08/29 13:38:16;;;;;;;6.70;3.83;;;;;;;;;;5010368;28;20496;-74
2022/08/29 13:41:02;;;;;;;6.50;3.88;;;;;;;;;;4995526;28;20077;-71
2022/08/29 13:43:47;;;;;;;8.63;3.90;;;;;;;;;;4989729;28;20026;-73
2022/08/29 13:46:36;;;;;;;5.78;4.00;;;;;;;;;;5009500;28;20396;-73
2022/08/29 13:49:23;;;;;;;5.30;3.43;;;;;;;;;;4994511;28;20030;-73
2022/08/29 13:52:09;;;;;;;6.00;4.25;;;;;;;;;;5001747;28;20285;-73
2022/08/29 13:54:55;;;;;;;8.70;4.38;;;;;;;;;;5009406;28;20030;-73
2022/08/29 13:57:42;;;;;;;5.75;3.63;;;;;;;;;;5012672;28;20120;-73
2022/08/29 14:00:28;;;;;;;6.13;4.18;;;;;;;;;;5013887;28;20397;-71
2022/08/29 14:03:15;;;;;;;8.45;3.92;;;;;;;;;;5012885;28;20481;-71
2022/08/29 14:06:01;;;;;;;6.30;4.63;;;;;;;;;;5010718;28;20026;-72
2022/08/29 14:08:47;;;;;;;6.47;4.03;;;;;;;;;;5009168;28;20049;-75
2022/08/29 14:11:32;;;;;;;5.72;4.13;;;;;;;;;;5009502;28;20033;-75
2022/08/29 14:14:18;;;;;;;5.43;4.25;;;;;;;;;;5013317;28;20379;-71
2022/08/29 14:17:03;;;;;;;6.85;3.67;;;;;;;;;;5011007;28;20029;-72
2022/08/29 14:19:49;;;;;;;8.75;4.60;;;;;;;;;;5013073;28;20014;-63
2022/08/29 14:22:35;;;;;;;5.20;3.28;;;;;;;;;;5005721;28;20022;-63
2022/08/29 14:25:21;;;;;;;6.38;4.13;;;;;;;;;;5010560;28;20512;-62
2022/08/29 14:28:07;;;;;;;6.32;3.70;;;;;;;;;;5004476;28;20021;-61
2022/08/29 14:30:52;;;;;;;7.20;3.80;;;;;;;;;;5018091;28;20383;-62
2022/08/29 14:33:39;;;;;;;6.22;3.72;;;;;;;;;;5002044;28;20480;-63
2022/08/29 14:36:25;;;;;;;6.07;3.88;;;;;;;;;;5010132;28;20075;-64
2022/08/29 14:39:11;;;;;;;6.05;4.03;;;;;;;;;;5009096;28;20396;-71
2022/08/29 14:41:56;;;;;;;7.07;4.22;;;;;;;;;;5000264;28;20026;-73
2022/08/29 14:44:42;;;;;;;5.78;4.28;;;;;;;;;;5004147;28;20830;-70
2022/08/29 14:47:27;;;;;;;6.10;3.50;;;;;;;;;;5012039;28;20117;-72
2022/08/29 14:50:13;;;;;;;5.32;3.47;;;;;;;;;;5011537;28;20477;-72
2022/08/29 14:52:59;;;;;;;5.93;3.78;;;;;;;;;;5008902;28;20044;-72
2022/08/29 14:55:44;;;;;;;8.50;4.40;;;;;;;;;;5008715;28;20116;-67
2022/08/29 14:58:30;;;;;;;5.45;3.72;;;;;;;;;;5007354;28;20045;-64
2022/08/29 15:01:16;;;;;;;6.82;4.05;;;;;;;;;;5008865;28;20026;-71
2022/08/29 15:04:02;;;;;;;6.22;3.60;;;;;;;;;;5007886;28;20029;-74
2022/08/29 15:06:47;;;;;;;6.10;4.13;;;;;;;;;;5010924;28;20124;-70
2022/08/29 15:09:33;;;;;;;6.50;3.97;;;;;;;;;;5008316;28;20108;-73
2022/08/29 15:12:20;;;;;;;4.80;3.75;;;;;;;;;;4995104;28;20084;-70
2022/08/29 15:15:06;;;;;;;11.73;4.72;;;;;;;;;;5007125;28;20026;-71
2022/08/29 15:17:51;;;;;;;11.57;4.18;;;;;;;;;;4994377;28;20412;-68
2022/08/29 15:20:37;;;;;;;8.18;4.28;;;;;;;;;;5006039;28;20026;-68
2022/08/29 15:23:23;;;;;;;6.90;4.20;;;;;;;;;;5006252;28;20457;-70
2022/08/29 15:26:09;;;;;;;6.20;4.10;;;;;;;;;;5007445;28;20104;-72
2022/08/29 15:28:54;;;;;;;8.35;3.78;;;;;;;;;;5007313;28;20018;-71
2022/08/29 15:31:40;;;;;;;8.00;4.35;;;;;;;;;;5004410;28;20496;-69
2022/08/29 15:34:26;;;;;;;8.63;4.30;;;;;;;;;;5005919;28;20508;-71
2022/08/29 15:37:12;;;;;;;7.05;4.03;;;;;;;;;;4992322;28;20037;-68
2022/08/29 15:39:58;;;;;;;7.90;4.15;;;;;;;;;;4993904;28;20041;-67
2022/08/29 15:42:44;;;;;;;6.13;3.90;;;;;;;;;;5007743;28;20400;-68
2022/08/29 15:45:29;;;;;;;5.97;3.75;;;;;;;;;;5009908;28;20461;-70
2022/08/29 15:48:15;;;;;;;6.07;3.58;;;;;;;;;;5014005;28;20492;-67
2022/08/29 15:51:00;;;;;;;7.00;4.22;;;;;;;;;;5011119;28;20030;-68
2022/08/29 15:53:46;;;;;;;6.85;4.30;;;;;;;;;;5010426;28;20057;-71
2022/08/29 15:56:34;;;;;;;6.68;3.80;;;;;;;;;;5008934;28;20501;-69
2022/08/29 15:59:20;;;;;;;4.22;3.30;;;;;;;;;;5006006;28;20021;-68
2022/08/29 16:02:08;;;;;;;6.75;4.05;;;;;;;;;;5006015;28;20026;-68
2022/08/29 16:04:55;;;;;;;8.23;3.95;;;;;;;;;;5007513;28;20018;-71
2022/08/29 16:07:41;;;;;;;5.97;3.50;;;;;;;;;;5009503;28;20037;-72
2022/08/29 16:10:26;;;;;;;7.07;3.55;;;;;;;;;;5008729;28;20026;-68
2022/08/29 16:13:13;;;;;;;6.00;3.88;;;;;;;;;;5003699;28;20037;-65
2022/08/29 16:15:59;;;;;;;5.18;3.35;;;;;;;;;;5008589;28;20026;-66
2022/08/29 16:18:44;;;;;;;7.80;4.00;;;;;;;;;;5008243;28;20038;-64
2022/08/29 16:21:31;;;;;;;6.63;3.97;;;;;;;;;;5008242;28;20034;-65
2022/08/29 16:24:17;;;;;;;8.07;4.20;;;;;;;;;;5003806;28;20018;-65
2022/08/29 16:27:02;;;;;;;6.13;3.45;;;;;;;;;;5005464;28;20124;-65
2022/08/29 16:29:48;;;;;;;5.20;3.55;;;;;;;;;;5008856;28;20045;-65
2022/08/29 16:32:34;;;;;;;6.65;4.25;;;;;;;;;;4989375;28;20097;-63
2022/08/29 16:35:20;;;;;;;6.28;4.32;;;;;;;;;;5007047;28;20416;-64
2022/08/29 16:38:06;;;;;;;8.43;4.28;;;;;;;;;;5008055;28;20042;-64
2022/08/29 16:40:51;;;;;;;8.45;4.07;;;;;;;;;;5007072;28;20018;-67
2022/08/29 16:43:38;;;;;;;6.25;4.40;;;;;;;;;;5004840;28;20030;-63
2022/08/29 16:46:25;;;;;;;9.02;4.30;;;;;;;;;;5007467;28;20056;-79
2022/08/29 16:49:10;;;;;;;9.10;4.00;;;;;;;;;;5016268;28;20022;-78
2022/08/29 16:51:56;;;;;;;7.82;3.60;;;;;;;;;;5013224;28;20049;-72